CheckWX is a tool to help pilots better visualize weather data.  It is not intended as a substitute for an official pre-flight weather briefing.

03:15:52 UTC

KOGD METAR
Ogden-Hinckley Airport
Ogden, Utah, USA
Current

23 mins ago

KOGD 260253Z AUTO 30005KT 10SM BKN060 OVC100 14/06 A2988 RMK AO2 SLP084 T01390061 53021
Observed
May-26 @ 02:53 UTC
Wind
  • 300° at 5 KTS
Visibility
10 SM
Flight Rules
VFR
Cloud Levels
  • Broken at 6,000' AGL
  • Overcast at 10,000' AGL
Temperature
14°C / 57°F
Dewpoint
C / 43°F
Humidity
59%
Altimeter
29.88" Hg
Pressure
1011.82 hPa
Previous

1 hour ago

KOGD 260153Z 27011KT 10SM BKN095 15/05 A2983 RMK AO2 WSHFT 0112 SLP070 T01500050
Observed
May-26 @ 01:53 UTC
Wind
  • 270° at 11 KTS
Visibility
10 SM
Flight Rules
VFR
Cloud Levels
  • Broken at 9,500' AGL
Temperature
15°C / 59°F
Dewpoint
C / 41°F
Humidity
51%
Altimeter
29.83" Hg
Pressure
1010.12 hPa
Previous

2 hours ago

KOGD 260132Z 28010KT 10SM SCT095 16/05 A2982 RMK AO2 WSHFT 0112 T01560050
Observed
May-26 @ 01:32 UTC
Wind
  • 280° at 10 KTS
Visibility
10 SM
Flight Rules
VFR
Cloud Levels
  • Scattered at 9,500' AGL
Temperature
16°C / 61°F
Dewpoint
C / 41°F
Humidity
48%
Altimeter
29.82" Hg
Pressure
1009.82 hPa